Startpagina
METAR-TAF:

METAR-TAF

Vliegvelden :

Amman, Jordanië

breedte: 31-59N, lengte: 035-59E, hoogte: 767 m

Actueel weer

Dit bericht is 58 minuten geleden gemaakt, om 21:00 UTC
Wind 5 kt uit het noordwesten
Temperatuur 20°C
Vochtigheid 78%
Druk 1015 hPa
Zicht: 3000 m
verspreid stof

METAR: OJAM 182100Z 31005KT 3000 DU NSC 20/16 Q1015 NOSIG

Tijdstip: 00:58 (21:58 UTC)

Verwachting

Dit bericht is 4 uur en het 58 minuten geleden gemaakt, om 17:00 UTC
Verwachting geldig van 18 om 18 UTC tot 19 om 24 UTC
Wind 8 kt uit het westnoordwesten
Zicht: 3000 m
Weinig wolken op 3000 ft
Verspreide wolken op 10000 ft
verspreid stof
Tijdelijke
van 19 om 02 UTC tot 19 om 05 UTC
Wind 2 kt uit variabele richting
Zicht: 2000 m
nevel

TAF: OJAM 181700Z 1818/1924 29008KT 3000 DU FEW030 SCT100 TEMPO 1902/1905 VRB02KT 2000 BR

Waarnemingen en weersverwachtingen van meer dan 4000 vliegvelden (METAR en TAF).

De beschikbare stations zijn de gele en rode punten op de kaart.

Ga met uw muis naar het station om de naam te zien.

Klik dan om waarnemingen en weersverwachtingen te zien.

kaart wijzigen: klik op de groene knoppen met een zwart kruis om in te zoomen, op de groene knop met een streepje om uit te zoomen of op de groene pijlen voor aangrenzende kaarten.


METAR-TAF: